createdAt,value
2024-02-24T00:02:20.828Z,51.97
2024-02-24T00:04:50.960Z,73.20
2024-02-24T00:07:29.344Z,74.18
2024-02-24T00:10:00.410Z,64.22
2024-02-24T00:12:32.188Z,68.10
2024-02-24T00:15:02.223Z,67.85
2024-02-24T00:18:06.574Z,59.22
2024-02-24T00:20:36.616Z,61.92
2024-02-24T00:23:10.756Z,62.10
2024-02-24T00:25:51.151Z,58.08
2024-02-24T00:28:21.935Z,61.58
2024-02-24T00:30:52.143Z,70.22
2024-02-24T00:33:28.356Z,57.35
2024-02-24T00:36:00.779Z,62.38
2024-02-24T00:38:45.354Z,66.32
2024-02-24T00:41:16.576Z,63.42
2024-02-24T00:43:51.517Z,61.60
2024-02-24T00:46:35.258Z,64.15
2024-02-24T00:49:25.446Z,58.53
2024-02-24T00:52:04.807Z,63.90
2024-02-24T00:54:42.561Z,56.38
2024-02-24T00:57:22.972Z,66.32
2024-02-24T00:59:59.521Z,55.17
2024-02-24T01:02:33.973Z,64.65
2024-02-24T01:05:05.748Z,59.42
2024-02-24T01:07:42.607Z,55.65
2024-02-24T01:10:17.171Z,58.92
2024-02-24T01:12:49.809Z,59.65
2024-02-24T01:15:18.976Z,60.25
2024-02-24T01:17:50.756Z,52.22
2024-02-24T01:20:20.156Z,53.13
2024-02-24T01:22:55.354Z,57.20
2024-02-24T01:25:28.439Z,58.38
2024-02-24T01:27:59.105Z,53.08
2024-02-24T01:30:36.934Z,55.65
2024-02-24T01:33:07.435Z,59.28
2024-02-24T01:35:38.012Z,69.18
2024-02-24T01:38:07.815Z,49.47
2024-02-24T01:43:28.700Z,52.10
2024-02-24T01:45:59.276Z,58.85
2024-02-24T01:48:29.356Z,58.47
2024-02-24T01:51:00.333Z,48.35
2024-02-24T01:53:33.215Z,62.72
2024-02-24T01:56:08.197Z,53.50
2024-02-24T01:58:40.033Z,60.45
2024-02-24T02:01:09.993Z,63.72
2024-02-24T02:03:40.289Z,62.15
2024-02-24T02:06:09.212Z,64.90
2024-02-24T02:08:39.115Z,63.15
2024-02-24T02:11:12.924Z,56.42
2024-02-24T02:13:42.415Z,50.63
2024-02-24T02:16:11.172Z,54.30
2024-02-24T02:18:41.018Z,54.38
2024-02-24T02:21:13.975Z,48.22
2024-02-24T02:23:45.163Z,53.35
2024-02-24T02:26:15.110Z,50.15
2024-02-24T02:28:45.741Z,47.28
2024-02-24T02:31:14.821Z,58.22
2024-02-24T02:36:13.513Z,51.67
2024-02-24T02:38:44.804Z,49.38
2024-02-24T02:41:13.882Z,50.83
2024-02-24T02:43:43.895Z,63.20
2024-02-24T02:46:13.424Z,51.30
2024-02-24T02:48:42.878Z,53.28
2024-02-24T02:51:12.069Z,45.53
2024-02-24T02:53:41.739Z,47.72
2024-02-24T02:58:44.002Z,43.75
2024-02-24T03:01:13.378Z,46.47
2024-02-24T03:03:43.336Z,41.13
2024-02-24T03:06:13.862Z,39.45
2024-02-24T03:08:45.430Z,47.33
2024-02-24T03:11:19.285Z,42.20
2024-02-24T03:13:48.768Z,41.97
2024-02-24T03:16:20.080Z,36.55
2024-02-24T03:18:50.558Z,31.55
2024-02-24T03:21:29.942Z,42.60
2024-02-24T03:23:59.457Z,31.50
2024-02-24T03:26:30.282Z,29.45
2024-02-24T03:28:59.739Z,24.67
2024-02-24T03:35:41.236Z,20.33
2024-02-24T03:40:42.916Z,21.90
2024-02-24T03:43:14.466Z,19.55
2024-02-24T03:45:46.381Z,17.83
2024-02-24T03:48:17.341Z,23.35
2024-02-24T03:50:46.780Z,20.98
2024-02-24T03:53:16.933Z,19.25
2024-02-24T03:55:46.190Z,19.23
2024-02-24T03:58:17.323Z,20.67
2024-02-24T04:00:46.290Z,21.73
2024-02-24T04:03:18.357Z,15.57
2024-02-24T04:05:48.621Z,13.00
2024-02-24T04:08:18.570Z,13.25
2024-02-24T04:10:47.779Z,12.48
2024-02-24T04:13:21.555Z,12.30
2024-02-24T04:15:51.834Z,13.90
2024-02-24T04:18:22.334Z,10.75
2024-02-24T04:20:52.165Z,10.50
2024-02-24T04:23:22.481Z,12.13
2024-02-24T04:25:51.458Z,12.18
2024-02-24T04:30:52.117Z,12.40
2024-02-24T04:35:50.948Z,14.27
2024-02-24T04:38:21.391Z,10.57
2024-02-24T04:40:50.752Z,7.55
2024-02-24T04:43:22.976Z,8.32
2024-02-24T04:45:55.089Z,13.00
2024-02-24T04:48:26.273Z,9.77
2024-02-24T04:50:56.010Z,8.20
2024-02-24T04:53:26.216Z,8.68
2024-02-24T04:55:55.789Z,9.15
2024-02-24T04:58:28.572Z,9.07
2024-02-24T05:00:57.680Z,7.32
2024-02-24T05:03:27.801Z,7.15
2024-02-24T05:08:27.016Z,7.32
2024-02-24T05:10:56.138Z,71.38
2024-02-24T05:13:26.952Z,16.55
2024-02-24T05:15:59.018Z,10.30
2024-02-24T05:18:29.824Z,11.18
2024-02-24T05:21:00.237Z,12.18
2024-02-24T05:23:29.782Z,10.68
2024-02-24T05:25:59.263Z,9.73
2024-02-24T05:28:33.137Z,7.88
2024-02-24T05:31:06.603Z,8.43
2024-02-24T05:33:36.372Z,7.82
2024-02-24T05:38:48.223Z,9.30
2024-02-24T05:41:22.802Z,12.00
2024-02-24T05:43:54.748Z,11.82
2024-02-24T05:46:24.351Z,14.13
2024-02-24T05:48:58.153Z,12.57
2024-02-24T05:51:27.258Z,14.27
2024-02-24T05:53:57.406Z,13.20
2024-02-24T05:56:26.279Z,12.73
2024-02-24T05:58:58.675Z,12.77
2024-02-24T06:01:27.498Z,13.27
2024-02-24T06:03:57.512Z,13.85
2024-02-24T06:06:26.609Z,11.07
2024-02-24T06:08:56.470Z,13.38
2024-02-24T06:13:57.192Z,8.75
2024-02-24T06:16:26.285Z,11.75
2024-02-24T06:18:55.679Z,9.35
2024-02-24T06:21:25.831Z,9.88
2024-02-24T06:23:55.440Z,8.52
2024-02-24T06:26:24.795Z,8.48
2024-02-24T06:28:54.179Z,8.40
2024-02-24T06:31:27.235Z,7.55
2024-02-24T06:33:57.667Z,8.07
2024-02-24T06:36:26.577Z,8.40
2024-02-24T06:39:01.328Z,7.18
2024-02-24T06:41:30.587Z,8.55
2024-02-24T06:44:02.336Z,6.95
2024-02-24T06:46:35.063Z,5.68
2024-02-24T06:49:05.047Z,6.25
2024-02-24T06:51:34.790Z,5.63
2024-02-24T06:54:03.997Z,8.13
2024-02-24T06:56:36.178Z,8.27
2024-02-24T06:59:08.245Z,4.10
2024-02-24T07:01:39.218Z,5.43
2024-02-24T07:04:08.328Z,3.22
2024-02-24T07:06:39.687Z,3.40
2024-02-24T07:09:12.721Z,3.90
2024-02-24T07:11:41.821Z,6.00
2024-02-24T07:14:13.173Z,3.53
2024-02-24T07:16:45.258Z,5.80
2024-02-24T07:19:14.985Z,3.40
2024-02-24T07:21:44.734Z,2.92
2024-02-24T07:24:14.333Z,3.38
2024-02-24T07:26:47.940Z,3.65
2024-02-24T07:29:30.221Z,5.25
2024-02-24T07:32:02.583Z,2.95
2024-02-24T07:34:32.943Z,3.55
2024-02-24T07:37:03.347Z,2.53
2024-02-24T07:39:33.232Z,2.95
2024-02-24T07:42:02.299Z,2.83
2024-02-24T07:47:03.173Z,3.33
2024-02-24T07:49:32.438Z,3.90
2024-02-24T07:52:01.279Z,3.38
2024-02-24T07:56:59.996Z,2.50
2024-02-24T08:01:59.644Z,4.63
2024-02-24T08:04:32.383Z,2.58
2024-02-24T08:07:03.338Z,3.85
2024-02-24T08:09:33.148Z,2.40
2024-02-24T08:12:02.433Z,4.03
2024-02-24T08:14:31.603Z,3.03
2024-02-24T08:17:03.340Z,4.35
2024-02-24T08:19:35.603Z,4.00
2024-02-24T08:22:07.583Z,2.50
2024-02-24T08:24:40.380Z,1.98
2024-02-24T08:27:10.832Z,2.70
2024-02-24T08:29:50.105Z,1.67
2024-02-24T08:32:19.796Z,1.85
2024-02-24T08:34:50.735Z,2.28
2024-02-24T08:37:20.760Z,1.88
2024-02-24T08:39:51.853Z,3.20
2024-02-24T08:42:27.600Z,2.95
2024-02-24T08:44:58.060Z,2.15
2024-02-24T08:47:36.394Z,4.03
2024-02-24T08:50:09.906Z,1.80
2024-02-24T08:52:46.694Z,1.83
2024-02-24T08:55:20.627Z,1.65
2024-02-24T08:57:50.589Z,2.05
2024-02-24T09:00:21.362Z,3.67
2024-02-24T09:02:51.081Z,5.05
2024-02-24T09:05:23.449Z,2.47
2024-02-24T09:07:52.491Z,2.03
2024-02-24T09:12:52.317Z,2.58
2024-02-24T09:15:24.006Z,2.35
2024-02-24T09:17:53.395Z,1.45
2024-02-24T09:20:24.367Z,2.60
2024-02-24T09:22:58.548Z,3.85
2024-02-24T09:25:27.948Z,3.00
2024-02-24T09:27:58.536Z,2.67
2024-02-24T09:30:28.347Z,1.75
2024-02-24T09:32:57.974Z,3.53
2024-02-24T09:35:32.195Z,2.22
2024-02-24T09:38:02.223Z,2.03
2024-02-24T09:40:31.795Z,2.83
2024-02-24T09:43:06.138Z,2.35
2024-02-24T09:45:43.463Z,2.08
2024-02-24T09:48:13.317Z,4.05
2024-02-24T09:50:45.881Z,3.03
2024-02-24T09:53:15.653Z,2.95
2024-02-24T09:55:46.034Z,2.53
2024-02-24T09:58:17.173Z,3.75
2024-02-24T10:00:48.661Z,2.83
2024-02-24T10:03:18.680Z,1.27
2024-02-24T10:05:51.875Z,1.58
2024-02-24T10:08:23.477Z,4.35
2024-02-24T10:10:56.241Z,1.90
2024-02-24T10:13:26.684Z,2.10
2024-02-24T10:15:55.958Z,1.23
2024-02-24T10:18:28.336Z,0.73
2024-02-24T10:21:00.609Z,1.85
2024-02-24T10:23:31.944Z,2.90
2024-02-24T10:30:24.273Z,2.00
2024-02-24T10:32:56.203Z,1.95
2024-02-24T10:35:25.593Z,2.22
2024-02-24T10:38:11.463Z,2.80
2024-02-24T10:40:48.159Z,2.42
2024-02-24T10:43:17.971Z,2.97
2024-02-24T10:48:18.844Z,1.95
2024-02-24T10:50:50.718Z,1.42
2024-02-24T10:53:28.916Z,1.90
2024-02-24T10:56:00.627Z,2.10
2024-02-24T10:58:32.026Z,2.25
2024-02-24T11:01:02.154Z,3.45
2024-02-24T11:03:35.148Z,0.60
2024-02-24T11:06:05.971Z,2.30
2024-02-24T11:08:45.343Z,2.60
2024-02-24T11:11:16.605Z,1.30
2024-02-24T11:13:59.614Z,2.88
2024-02-24T11:16:38.798Z,1.65
2024-02-24T11:19:13.237Z,1.15
2024-02-24T11:22:03.892Z,1.50
2024-02-24T11:24:37.835Z,1.70
2024-02-24T11:27:08.925Z,1.80
2024-02-24T11:29:40.879Z,1.40
2024-02-24T11:32:14.919Z,1.92
2024-02-24T11:34:50.370Z,1.73
2024-02-24T11:37:26.807Z,2.15
2024-02-24T11:40:27.247Z,1.42
2024-02-24T11:43:00.448Z,3.13
2024-02-24T11:45:31.712Z,1.92
2024-02-24T11:48:02.895Z,3.13
2024-02-24T11:50:35.347Z,1.90
2024-02-24T11:53:11.069Z,2.92
2024-02-24T11:55:45.020Z,1.70
2024-02-24T11:58:16.668Z,1.90
2024-02-24T12:00:46.431Z,1.95
2024-02-24T12:05:50.773Z,2.35
2024-02-24T12:08:24.746Z,3.33
2024-02-24T12:11:20.108Z,2.33
2024-02-24T12:13:55.073Z,1.63
2024-02-24T12:16:39.045Z,0.95
2024-02-24T12:19:08.573Z,1.75
2024-02-24T12:21:43.201Z,0.90
2024-02-24T12:24:15.172Z,2.47
2024-02-24T12:26:53.694Z,1.45
2024-02-24T12:29:27.125Z,1.08
2024-02-24T12:32:08.256Z,1.13
2024-02-24T12:34:48.425Z,1.48
2024-02-24T12:37:32.506Z,2.22
2024-02-24T12:40:06.669Z,1.20
2024-02-24T12:42:48.614Z,2.30
2024-02-24T12:48:19.642Z,1.02
2024-02-24T12:53:48.292Z,1.60
2024-02-24T12:56:28.872Z,1.73
2024-02-24T12:59:39.378Z,2.00
2024-02-24T13:02:16.955Z,1.35
2024-02-24T13:08:01.707Z,0.95
2024-02-24T13:10:39.486Z,0.95
2024-02-24T13:13:34.615Z,1.90
2024-02-24T13:19:01.238Z,2.28
2024-02-24T13:21:43.135Z,1.45
2024-02-24T13:27:27.155Z,1.63
2024-02-24T13:29:58.472Z,4.53
2024-02-24T13:32:42.454Z,3.53
2024-02-24T13:36:12.172Z,2.00
2024-02-24T13:41:46.932Z,1.40
2024-02-24T13:44:21.004Z,4.03
2024-02-24T13:46:52.322Z,1.27
2024-02-24T13:49:37.210Z,0.98
2024-02-24T13:52:10.023Z,1.67
2024-02-24T13:54:41.581Z,0.35
2024-02-24T13:57:18.918Z,0.68
2024-02-24T13:59:52.697Z,1.65
2024-02-24T14:05:27.009Z,1.75
2024-02-24T14:07:58.605Z,0.65
2024-02-24T14:10:29.043Z,0.57
2024-02-24T14:13:17.701Z,1.30
2024-02-24T14:18:34.955Z,1.65
2024-02-24T14:22:07.199Z,1.02
2024-02-24T14:25:18.349Z,0.93
2024-02-24T14:28:16.804Z,1.60
2024-02-24T14:52:05.141Z,2.45
2024-02-24T14:54:52.468Z,2.13
2024-02-24T14:57:37.175Z,4.13
2024-02-24T15:00:26.643Z,4.28
2024-02-24T15:03:09.317Z,4.97
2024-02-24T15:06:24.654Z,2.47
2024-02-24T15:33:29.734Z,3.78
2024-02-24T15:39:46.335Z,2.25
2024-02-24T15:42:20.648Z,5.00
2024-02-24T15:44:54.205Z,3.17
2024-02-24T15:47:26.307Z,2.80
2024-02-24T15:53:23.871Z,3.67
2024-02-24T15:56:00.947Z,3.47
2024-02-24T15:58:35.090Z,2.97
2024-02-24T16:01:07.544Z,3.97
2024-02-24T16:10:12.175Z,3.15
2024-02-24T16:12:45.254Z,5.38
2024-02-24T16:25:36.497Z,4.72
2024-02-24T16:31:27.512Z,8.18
2024-02-24T16:34:09.512Z,11.07
2024-02-24T16:37:11.786Z,11.75
2024-02-24T16:47:25.079Z,7.25
2024-02-24T16:56:26.348Z,9.30
2024-02-24T16:59:01.269Z,12.35
2024-02-24T17:01:32.231Z,11.27
2024-02-24T17:04:33.692Z,11.52
2024-02-24T17:10:41.814Z,7.18
2024-02-24T17:13:13.455Z,9.70
2024-02-24T17:15:49.721Z,10.48
2024-02-24T17:18:36.506Z,8.18
2024-02-24T17:21:11.825Z,13.10
2024-02-24T17:24:08.372Z,10.13
2024-02-24T17:26:46.128Z,8.55
2024-02-24T17:29:32.866Z,15.32
2024-02-24T17:32:08.189Z,11.52
2024-02-24T17:34:38.553Z,12.60
2024-02-24T17:37:10.161Z,19.08
2024-02-24T17:39:51.453Z,16.95
2024-02-24T17:42:26.714Z,18.27
2024-02-24T17:44:57.328Z,14.32
2024-02-24T17:47:36.403Z,14.70
2024-02-24T17:52:58.735Z,15.85
2024-02-24T17:56:00.348Z,16.70
2024-02-24T17:58:44.490Z,19.23
2024-02-24T18:01:20.497Z,15.02
2024-02-24T18:03:54.339Z,10.75
2024-02-24T18:06:23.546Z,10.48
2024-02-24T18:09:00.084Z,9.30
2024-02-24T18:11:29.930Z,12.90
2024-02-24T18:14:07.946Z,11.55
2024-02-24T18:16:46.682Z,12.02
2024-02-24T18:19:17.417Z,11.23
2024-02-24T18:21:49.052Z,9.82
2024-02-24T18:24:20.182Z,11.73
2024-02-24T18:26:49.885Z,14.43
2024-02-24T18:29:27.900Z,16.02
2024-02-24T18:32:01.248Z,14.27
2024-02-24T18:34:39.381Z,17.52
2024-02-24T18:37:13.511Z,11.98
2024-02-24T18:39:53.666Z,11.32
2024-02-24T18:42:30.701Z,15.60
2024-02-24T18:45:21.009Z,13.90
2024-02-24T18:47:51.975Z,15.02
2024-02-24T18:50:23.649Z,13.48
2024-02-24T18:55:28.708Z,19.08
2024-02-24T18:57:58.376Z,16.42
2024-02-24T19:00:31.075Z,17.23
2024-02-24T19:03:01.250Z,11.35
2024-02-24T19:05:32.228Z,11.80
2024-02-24T19:08:01.274Z,15.75
2024-02-24T19:10:32.317Z,16.90
2024-02-24T19:13:01.713Z,12.18
2024-02-24T19:15:33.810Z,15.27
2024-02-24T19:18:02.923Z,15.43
2024-02-24T19:20:33.525Z,13.40
2024-02-24T19:23:06.205Z,11.32
2024-02-24T19:25:38.259Z,15.50
2024-02-24T19:28:07.992Z,20.25
2024-02-24T19:30:39.628Z,17.13
2024-02-24T19:33:10.300Z,17.75
2024-02-24T19:35:42.678Z,17.70
2024-02-24T19:38:13.905Z,18.00
2024-02-24T19:40:44.088Z,16.60
2024-02-24T19:45:44.036Z,16.70
2024-02-24T19:48:14.317Z,18.13
2024-02-24T19:50:48.994Z,18.05
2024-02-24T19:53:18.561Z,20.45
2024-02-24T19:56:04.172Z,21.33
2024-02-24T19:58:39.624Z,18.15
2024-02-24T20:01:18.604Z,18.30
2024-02-24T20:03:47.689Z,16.55
2024-02-24T20:06:17.374Z,19.50
2024-02-24T20:08:47.875Z,19.70
2024-02-24T20:11:23.206Z,23.40
2024-02-24T20:13:52.199Z,18.10
2024-02-24T20:16:25.590Z,21.75
2024-02-24T20:18:57.010Z,17.65
2024-02-24T20:21:29.661Z,17.88
2024-02-24T20:23:58.673Z,18.33
2024-02-24T20:26:29.534Z,19.13
2024-02-24T20:29:02.548Z,19.85
2024-02-24T20:34:43.858Z,18.20
2024-02-24T20:37:19.373Z,18.70
2024-02-24T20:40:11.867Z,19.45
2024-02-24T20:45:36.238Z,12.75
2024-02-24T20:48:15.152Z,17.50
2024-02-24T20:50:47.216Z,16.42
2024-02-24T20:53:18.110Z,17.60
2024-02-24T20:55:48.755Z,19.55
2024-02-24T20:58:20.387Z,16.38
2024-02-24T21:00:56.669Z,19.90
2024-02-24T21:03:41.141Z,18.75
2024-02-24T21:06:15.611Z,16.63
2024-02-24T21:08:46.447Z,19.58
2024-02-24T21:11:27.625Z,21.33
2024-02-24T21:14:02.431Z,19.67
2024-02-24T21:16:41.799Z,22.45
2024-02-24T21:19:16.605Z,16.83
2024-02-24T21:21:58.143Z,21.45
2024-02-24T21:24:35.702Z,23.77
2024-02-24T21:27:35.742Z,21.35
2024-02-24T21:30:24.009Z,22.83
2024-02-24T21:33:13.820Z,25.52
2024-02-24T21:35:51.066Z,33.60
2024-02-24T21:38:20.826Z,25.00
2024-02-24T21:41:19.291Z,23.45
2024-02-24T21:44:07.163Z,25.17
2024-02-24T21:46:39.877Z,20.38
2024-02-24T21:49:11.698Z,18.75
2024-02-24T21:51:45.664Z,22.33
2024-02-24T21:54:17.950Z,24.65
2024-02-24T21:56:54.551Z,25.02
2024-02-24T21:59:24.232Z,28.77
2024-02-24T22:01:54.776Z,32.95
2024-02-24T22:04:25.816Z,37.20
2024-02-24T22:06:59.626Z,34.35
2024-02-24T22:09:29.598Z,33.17
2024-02-24T22:12:02.453Z,35.83
2024-02-24T22:14:31.984Z,36.67
2024-02-24T22:17:04.215Z,31.40
2024-02-24T22:19:38.404Z,32.95
2024-02-24T22:22:09.475Z,37.05
2024-02-24T22:24:38.366Z,39.28
2024-02-24T22:29:41.938Z,27.90
2024-02-24T22:32:11.325Z,30.83
2024-02-24T22:34:40.839Z,25.38
2024-02-24T22:37:14.997Z,27.85
2024-02-24T22:39:48.927Z,22.63
2024-02-24T22:42:23.279Z,24.50
2024-02-24T22:44:57.152Z,22.48
2024-02-24T22:47:30.046Z,20.17
2024-02-24T22:50:00.747Z,23.33
2024-02-24T22:52:33.910Z,17.13
2024-02-24T22:55:03.551Z,17.45
2024-02-24T22:57:36.537Z,18.25
2024-02-24T23:00:06.975Z,21.23
2024-02-24T23:02:37.660Z,20.77
2024-02-24T23:05:07.407Z,22.23
2024-02-24T23:07:39.947Z,21.52
2024-02-24T23:10:14.608Z,22.75
2024-02-24T23:12:44.952Z,24.58
2024-02-24T23:15:19.120Z,26.00
2024-02-24T23:17:50.080Z,26.50
2024-02-24T23:20:19.778Z,23.20
2024-02-24T23:22:54.389Z,23.75
2024-02-24T23:25:24.933Z,25.00
2024-02-24T23:28:01.177Z,24.90
2024-02-24T23:30:31.735Z,24.70
2024-02-24T23:33:03.870Z,32.58
2024-02-24T23:35:40.214Z,26.38
2024-02-24T23:38:24.735Z,29.98
2024-02-24T23:40:58.307Z,29.27
2024-02-24T23:43:29.043Z,24.70
2024-02-24T23:46:04.344Z,24.42
2024-02-24T23:48:46.349Z,28.00
2024-02-24T23:51:17.763Z,29.67
2024-02-24T23:53:52.768Z,29.70
2024-02-24T23:56:28.294Z,26.48
2024-02-24T23:59:06.963Z,30.13
